Time;durP1;ratioP1;P1;durP2;ratioP2;P2;SDS_P1;SDS_P2;PMS_P1;PMS_P2;Temp;Humidity;BMP_temperature;BMP_pressure;BME280_temperature;BME280_humidity;BME280_pressure;Samples;Min_cycle;Max_cycle;Signal;HPM_P1;HPM_P2
2023/04/05 00:01:06;;;;;;;;;;;;;;;;;;6243922;28;20490;-59
2023/04/05 00:04:07;;;;;;;;;;;;;;;;;;6242523;28;19924;-58
2023/04/05 00:07:08;;;;;;;;;;;;;;;;;;6243728;28;19932;-58
2023/04/05 00:10:09;;;;;;;;;;;;;;;;;;6243236;28;19964;-57
2023/04/05 00:13:09;;;;;;;;;;;;;;;;;;6244150;28;19920;-58
2023/04/05 00:16:10;;;;;;;;;;;;;;;;;;6243094;28;19924;-58
2023/04/05 00:19:11;;;;;;;;;;;;;;;;;;6243339;28;20002;-58
2023/04/05 00:22:11;;;;;;;;;;;;;;;;;;6243251;28;20015;-59
2023/04/05 00:25:12;;;;;;;;;;;;;;;;;;6239837;28;20296;-61
2023/04/05 00:28:12;;;;;;;;;;;;;;;;;;6240793;28;20934;-55
2023/04/05 00:31:13;;;;;;;;;;;;;;;;;;6237943;28;19932;-60
2023/04/05 00:34:14;;;;;;;;;;;;;;;;;;6239729;28;19928;-58
2023/04/05 00:37:14;;;;;;;;;;;;;;;;;;6239057;28;19921;-59
2023/04/05 00:40:15;;;;;;;;;;;;;;;;;;6241569;28;19957;-60
2023/04/05 00:43:15;;;;;;;;;;;;;;;;;;6239846;28;20355;-60
2023/04/05 00:46:16;;;;;;;;;;;;;;;;;;6238926;28;19960;-59
2023/04/05 00:49:17;;;;;;;;;;;;;;;;;;6239662;28;19921;-60
2023/04/05 00:52:22;;;;;;;;;;;;;;;;;;6237373;28;19921;-61
2023/04/05 00:55:22;;;;;;;;;;;;;;;;;;6240297;28;19925;-58
2023/04/05 00:58:23;;;;;;;;;;;;;;;;;;6239620;28;20265;-58
2023/04/05 01:01:25;;;;;;;;;;;;;;;;;;6238627;28;20394;-61
2023/04/05 01:04:29;;;;;;;;;;;;;;;;;;6237973;28;19925;-57
2023/04/05 01:07:45;;;;;;;;;;;;;;;;;;6237983;28;20894;-61
2023/04/05 01:10:47;;;;;;;;;;;;;;;;;;6237328;28;19994;-61
2023/04/05 01:13:48;;;;;;;;;;;;;;;;;;6236989;28;19967;-55
2023/04/05 01:16:50;;;;;;;;;;;;;;;;;;6236427;28;20388;-58
2023/04/05 01:19:57;;;;;;;;;;;;;;;;;;6237544;28;20635;-57
2023/04/05 01:23:01;;;;;;;;;;;;;;;;;;6234517;28;19933;-57
2023/04/05 01:26:15;;;;;;;;;;;;;;;;;;6237394;28;20379;-59
2023/04/05 01:29:21;;;;;;;;;;;;;;;;;;6239971;28;19948;-61
2023/04/05 01:32:39;;;;;;;;;;;;;;;;;;6239628;28;20403;-60
2023/04/05 01:36:10;;;;;;;;;;;;;;;;;;6234708;28;19921;-58
2023/04/05 01:39:13;;;;;;;;;;;;;;;;;;6227821;28;19971;-60
2023/04/05 01:42:15;;;;;;;;;;;;;;;;;;6237313;28;20288;-59
2023/04/05 01:45:16;;;;;;;;;;;;;;;;;;6238456;28;19921;-57
2023/04/05 01:48:16;;;;;;;;;;;;;;;;;;6236877;28;19947;-58
2023/04/05 01:51:17;;;;;;;;;;;;;;;;;;6238330;28;19937;-57
2023/04/05 01:54:17;;;;;;;;;;;;;;;;;;6236597;28;19982;-59
2023/04/05 01:57:18;;;;;;;;;;;;;;;;;;6237092;28;20666;-60
2023/04/05 02:00:18;;;;;;;;;;;;;;;;;;6240257;28;19928;-58
2023/04/05 02:03:19;;;;;;;;;;;;;;;;;;6239189;28;19925;-58
2023/04/05 02:06:21;;;;;;;;;;;;;;;;;;6240169;28;20303;-61
2023/04/05 02:09:21;;;;;;;;;;;;;;;;;;6238494;28;19983;-58
2023/04/05 02:12:22;;;;;;;;;;;;;;;;;;6238159;28;19940;-58
2023/04/05 02:15:22;;;;;;;;;;;;;;;;;;6236717;28;19929;-58
2023/04/05 02:18:28;;;;;;;;;;;;;;;;;;6239101;28;19925;-62
2023/04/05 02:21:30;;;;;;;;;;;;;;;;;;6239970;28;19920;-58
2023/04/05 02:24:31;;;;;;;;;;;;;;;;;;6240522;28;20464;-56
2023/04/05 02:27:31;;;;;;;;;;;;;;;;;;6236062;28;19925;-58
2023/04/05 02:30:32;;;;;;;;;;;;;;;;;;6241450;28;19925;-57
2023/04/05 02:33:33;;;;;;;;;;;;;;;;;;6237146;28;20261;-58
2023/04/05 02:36:33;;;;;;;;;;;;;;;;;;6239118;28;19928;-58
2023/04/05 02:39:33;;;;;;;;;;;;;;;;;;6239087;28;19921;-59
2023/04/05 02:42:35;;;;;;;;;;;;;;;;;;6238852;28;19921;-58
2023/04/05 02:45:35;;;;;;;;;;;;;;;;;;6238671;28;19925;-58
2023/04/05 02:48:36;;;;;;;;;;;;;;;;;;6239903;28;19928;-57
2023/04/05 02:51:37;;;;;;;;;;;;;;;;;;6237282;28;19921;-61
2023/04/05 02:54:37;;;;;;;;;;;;;;;;;;6238205;28;20685;-63
2023/04/05 02:57:38;;;;;;;;;;;;;;;;;;6238902;28;20315;-59
2023/04/05 03:00:39;;;;;;;;;;;;;;;;;;6238776;28;19929;-58
2023/04/05 03:03:40;;;;;;;;;;;;;;;;;;6237009;28;19925;-61
2023/04/05 03:06:45;;;;;;;;;;;;;;;;;;6234269;28;20368;-60
2023/04/05 03:09:46;;;;;;;;;;;;;;;;;;6239899;28;19921;-56
2023/04/05 03:12:47;;;;;;;;;;;;;;;;;;6240528;28;19966;-58
2023/04/05 03:15:47;;;;;;;;;;;;;;;;;;6241732;28;19921;-58
2023/04/05 03:18:48;;;;;;;;;;;;;;;;;;6237146;28;19921;-61
2023/04/05 03:21:48;;;;;;;;;;;;;;;;;;6239619;28;19928;-60
2023/04/05 03:24:49;;;;;;;;;;;;;;;;;;6237256;28;20387;-57
2023/04/05 03:27:51;;;;;;;;;;;;;;;;;;6237469;28;19921;-60
2023/04/05 03:30:52;;;;;;;;;;;;;;;;;;6240002;28;20358;-58
2023/04/05 03:33:53;;;;;;;;;;;;;;;;;;6240245;28;19925;-60
2023/04/05 03:36:54;;;;;;;;;;;;;;;;;;6237843;28;19971;-62
2023/04/05 03:39:55;;;;;;;;;;;;;;;;;;6240789;28;20444;-57
2023/04/05 03:42:55;;;;;;;;;;;;;;;;;;6239115;28;19925;-57
2023/04/05 03:45:56;;;;;;;;;;;;;;;;;;6239127;28;20592;-57
2023/04/05 03:48:57;;;;;;;;;;;;;;;;;;6242712;28;19924;-57
2023/04/05 03:51:58;;;;;;;;;;;;;;;;;;6243504;28;19925;-60
2023/04/05 03:54:58;;;;;;;;;;;;;;;;;;6243674;28;19935;-60
2023/04/05 03:57:59;;;;;;;;;;;;;;;;;;6240605;28;20407;-58
2023/04/05 04:01:00;;;;;;;;;;;;;;;;;;6241875;28;20011;-61
2023/04/05 04:04:00;;;;;;;;;;;;;;;;;;6240728;28;19966;-57
2023/04/05 04:07:01;;;;;;;;;;;;;;;;;;6238802;28;19967;-58
2023/04/05 04:10:02;;;;;;;;;;;;;;;;;;6238034;28;19929;-58
2023/04/05 04:13:03;;;;;;;;;;;;;;;;;;6239495;28;20311;-57
2023/04/05 04:16:03;;;;;;;;;;;;;;;;;;6240959;28;19929;-60
2023/04/05 04:19:04;;;;;;;;;;;;;;;;;;6238651;28;20257;-58
2023/04/05 04:22:08;;;;;;;;;;;;;;;;;;6239727;28;19921;-58
2023/04/05 04:25:10;;;;;;;;;;;;;;;;;;6242408;28;19921;-62
2023/04/05 04:28:11;;;;;;;;;;;;;;;;;;6241182;28;20287;-59
2023/04/05 04:31:14;;;;;;;;;;;;;;;;;;6239510;28;19929;-57
2023/04/05 04:34:17;;;;;;;;;;;;;;;;;;6239948;28;19972;-60
2023/04/05 04:37:21;;;;;;;;;;;;;;;;;;6238189;28;19925;-58
2023/04/05 04:40:21;;;;;;;;;;;;;;;;;;6242576;28;19932;-59
2023/04/05 04:43:26;;;;;;;;;;;;;;;;;;6241150;28;19928;-58
2023/04/05 04:46:29;;;;;;;;;;;;;;;;;;6242504;28;19936;-57
2023/04/05 04:49:31;;;;;;;;;;;;;;;;;;6238463;28;19928;-60
2023/04/05 04:52:32;;;;;;;;;;;;;;;;;;6244319;28;19925;-61
2023/04/05 04:55:35;;;;;;;;;;;;;;;;;;6236656;28;19932;-60
2023/04/05 04:58:35;;;;;;;;;;;;;;;;;;6236038;28;20299;-59
2023/04/05 05:01:39;;;;;;;;;;;;;;;;;;6239243;28;19925;-59
2023/04/05 05:04:41;;;;;;;;;;;;;;;;;;6236853;28;19929;-61
2023/04/05 05:07:41;;;;;;;;;;;;;;;;;;6234801;28;19932;-58
2023/04/05 05:10:42;;;;;;;;;;;;;;;;;;6241907;28;19921;-58
2023/04/05 05:13:42;;;;;;;;;;;;;;;;;;6243866;28;19924;-55
2023/04/05 05:16:43;;;;;;;;;;;;;;;;;;6242512;28;19921;-56
2023/04/05 05:19:44;;;;;;;;;;;;;;;;;;6240356;28;19948;-56
2023/04/05 05:22:45;;;;;;;;;;;;;;;;;;6242608;28;19925;-60
2023/04/05 05:25:46;;;;;;;;;;;;;;;;;;6242146;28;20277;-61
2023/04/05 05:28:48;;;;;;;;;;;;;;;;;;6242762;28;19967;-55
2023/04/05 05:31:49;;;;;;;;;;;;;;;;;;6241560;28;20015;-53
2023/04/05 05:34:49;;;;;;;;;;;;;;;;;;6241587;28;19925;-57
2023/04/05 05:37:51;;;;;;;;;;;;;;;;;;6240261;28;19925;-57
2023/04/05 05:40:56;;;;;;;;;;;;;;;;;;6241120;28;20467;-57
2023/04/05 05:43:56;;;;;;;;;;;;;;;;;;6237833;28;19931;-57
2023/04/05 05:46:57;;;;;;;;;;;;;;;;;;6239309;28;19925;-59
2023/04/05 05:49:58;;;;;;;;;;;;;;;;;;6240786;28;19924;-61
2023/04/05 05:52:59;;;;;;;;;;;;;;;;;;6243379;28;19932;-56
2023/04/05 05:56:00;;;;;;;;;;;;;;;;;;6236814;28;19925;-57
2023/04/05 05:59:00;;;;;;;;;;;;;;;;;;6235269;28;19924;-60
2023/04/05 06:02:01;;;;;;;;;;;;;;;;;;6237566;28;20067;-57
2023/04/05 06:05:01;;;;;;;;;;;;;;;;;;6237210;28;19929;-58
2023/04/05 06:08:02;;;;;;;;;;;;;;;;;;6235806;28;20141;-60
2023/04/05 06:11:03;;;;;;;;;;;;;;;;;;6232466;28;19929;-56
2023/04/05 06:14:03;;;;;;;;;;;;;;;;;;6234348;28;19929;-55
2023/04/05 06:17:04;;;;;;;;;;;;;;;;;;6233949;28;19924;-56
2023/04/05 06:20:05;;;;;;;;;;;;;;;;;;6235075;28;19935;-54
2023/04/05 06:23:06;;;;;;;;;;;;;;;;;;6236779;28;20376;-59
2023/04/05 06:26:07;;;;;;;;;;;;;;;;;;6238230;28;19936;-59
2023/04/05 06:29:08;;;;;;;;;;;;;;;;;;6235541;28;19925;-60
2023/04/05 06:32:08;;;;;;;;;;;;;;;;;;6235853;28;19925;-59
2023/04/05 06:35:09;;;;;;;;;;;;;;;;;;6234785;28;19948;-59
2023/04/05 06:38:10;;;;;;;;;;;;;;;;;;6232653;28;19928;-60
2023/04/05 06:41:10;;;;;;;;;;;;;;;;;;6235863;28;19932;-58
2023/04/05 06:44:11;;;;;;;;;;;;;;;;;;6236102;28;19921;-58
2023/04/05 06:47:11;;;;;;;;;;;;;;;;;;6235985;28;19929;-59
2023/04/05 06:50:12;;;;;;;;;;;;;;;;;;6235806;28;19929;-57
2023/04/05 06:53:17;;;;;;;;;;;;;;;;;;6236121;28;19929;-58
2023/04/05 06:56:17;;;;;;;;;;;;;;;;;;6234815;28;19921;-59
2023/04/05 06:59:18;;;;;;;;;;;;;;;;;;6233776;28;20410;-60
2023/04/05 07:02:19;;;;;;;;;;;;;;;;;;6239167;28;20335;-59
2023/04/05 07:05:19;;;;;;;;;;;;;;;;;;6246293;28;19928;-57
2023/04/05 07:08:20;;;;;;;;;;;;;;;;;;6246693;28;19921;-60
2023/04/05 07:11:20;;;;;;;;;;;;;;;;;;6247757;28;20299;-58
2023/04/05 07:14:21;;;;;;;;;;;;;;;;;;6244013;28;20039;-55
2023/04/05 07:17:22;;;;;;;;;;;;;;;;;;6241523;28;19933;-57
2023/04/05 07:20:22;;;;;;;;;;;;;;;;;;6241763;28;20295;-58
2023/04/05 07:23:23;;;;;;;;;;;;;;;;;;6244221;28;19925;-60
2023/04/05 07:26:23;;;;;;;;;;;;;;;;;;6244872;28;19925;-59
2023/04/05 07:29:25;;;;;;;;;;;;;;;;;;6242386;28;19974;-58
2023/04/05 07:32:25;;;;;;;;;;;;;;;;;;6242688;28;20380;-60
2023/04/05 07:35:26;;;;;;;;;;;;;;;;;;6243210;28;19936;-60
2023/04/05 07:38:28;;;;;;;;;;;;;;;;;;6243078;28;19951;-60
2023/04/05 07:41:34;;;;;;;;;;;;;;;;;;6244046;28;20393;-57
2023/04/05 07:44:34;;;;;;;;;;;;;;;;;;6244453;28;20279;-61
2023/04/05 07:47:35;;;;;;;;;;;;;;;;;;6246026;28;19925;-61
2023/04/05 07:50:38;;;;;;;;;;;;;;;;;;6242546;28;19929;-57
2023/04/05 07:53:39;;;;;;;;;;;;;;;;;;6244244;28;19975;-59
2023/04/05 07:56:41;;;;;;;;;;;;;;;;;;6242465;28;19927;-57
2023/04/05 07:59:41;;;;;;;;;;;;;;;;;;6241998;28;19932;-59
2023/04/05 08:02:42;;;;;;;;;;;;;;;;;;6243343;28;20398;-59
2023/04/05 08:05:42;;;;;;;;;;;;;;;;;;6243107;28;19921;-60
2023/04/05 08:08:44;;;;;;;;;;;;;;;;;;6240534;28;19921;-59
2023/04/05 08:11:44;;;;;;;;;;;;;;;;;;6237825;28;19981;-59
2023/04/05 08:14:45;;;;;;;;;;;;;;;;;;6237878;28;20427;-58
2023/04/05 08:17:45;;;;;;;;;;;;;;;;;;6239002;28;19975;-61
2023/04/05 08:20:49;;;;;;;;;;;;;;;;;;6239597;28;19921;-58
2023/04/05 08:23:50;;;;;;;;;;;;;;;;;;6240459;28;19921;-58
2023/04/05 08:26:50;;;;;;;;;;;;;;;;;;6237980;28;19979;-58
2023/04/05 08:29:51;;;;;;;;;;;;;;;;;;6237049;28;20673;-57
2023/04/05 08:32:51;;;;;;;;;;;;;;;;;;6239935;28;20520;-60
2023/04/05 08:35:52;;;;;;;;;;;;;;;;;;6237581;28;19929;-66
2023/04/05 08:38:52;;;;;;;;;;;;;;;;;;6240697;28;20331;-55
2023/04/05 08:42:13;;;;;;;;;;;;;;;;;;6239406;28;19925;-59
2023/04/05 08:45:16;;;;;;;;;;;;;;;;;;6237448;28;19927;-57
2023/04/05 08:48:17;;;;;;;;;;;;;;;;;;6238146;28;20001;-60
2023/04/05 08:51:21;;;;;;;;;;;;;;;;;;6237331;28;20438;-58
2023/04/05 08:54:22;;;;;;;;;;;;;;;;;;6238176;28;20023;-56
2023/04/05 08:57:27;;;;;;;;;;;;;;;;;;6238083;28;20418;-60
2023/04/05 09:00:27;;;;;;;;;;;;;;;;;;6234369;28;19936;-62
2023/04/05 09:03:30;;;;;;;;;;;;;;;;;;6237525;28;19921;-57
2023/04/05 09:06:30;;;;;;;;;;;;;;;;;;6238892;28;19921;-57
2023/04/05 09:09:33;;;;;;;;;;;;;;;;;;6236643;28;20011;-57
2023/04/05 09:12:34;;;;;;;;;;;;;;;;;;6236239;28;20007;-56
2023/04/05 09:15:35;;;;;;;;;;;;;;;;;;6238988;28;19924;-60
2023/04/05 09:18:36;;;;;;;;;;;;;;;;;;6240119;28;20367;-60
2023/04/05 09:21:55;;;;;;;;;;;;;;;;;;6236605;28;19921;-61
2023/04/05 09:24:56;;;;;;;;;;;;;;;;;;6237623;28;19921;-57
2023/04/05 09:27:57;;;;;;;;;;;;;;;;;;6236918;28;19928;-61
2023/04/05 09:30:58;;;;;;;;;;;;;;;;;;6237010;28;19928;-60
2023/04/05 09:34:02;;;;;;;;;;;;;;;;;;6234989;28;21052;-61
2023/04/05 09:37:11;;;;;;;;;;;;;;;;;;6236332;28;19929;-60
2023/04/05 09:40:13;;;;;;;;;;;;;;;;;;6236761;28;19925;-61
2023/04/05 09:43:33;;;;;;;;;;;;;;;;;;6235194;28;19921;-61
2023/04/05 09:46:36;;;;;;;;;;;;;;;;;;6237063;28;19925;-61
2023/04/05 09:49:36;;;;;;;;;;;;;;;;;;6239196;28;19929;-59
2023/04/05 09:52:38;;;;;;;;;;;;;;;;;;6235598;28;20654;-60
2023/04/05 09:55:38;;;;;;;;;;;;;;;;;;6235604;28;19925;-62
2023/04/05 09:58:39;;;;;;;;;;;;;;;;;;6236817;28;19925;-61
2023/04/05 10:01:43;;;;;;;;;;;;;;;;;;6237421;28;19921;-61
2023/04/05 10:04:44;;;;;;;;;;;;;;;;;;6234044;28;19921;-61
2023/04/05 10:07:45;;;;;;;;;;;;;;;;;;6239148;28;19975;-60
2023/04/05 10:10:46;;;;;;;;;;;;;;;;;;6238222;28;20720;-60
2023/04/05 10:13:48;;;;;;;;;;;;;;;;;;6236284;28;19925;-59
2023/04/05 10:16:57;;;;;;;;;;;;;;;;;;6235824;28;19929;-59
2023/04/05 10:20:08;;;;;;;;;;;;;;;;;;6236237;28;19929;-60
2023/04/05 10:23:15;;;;;;;;;;;;;;;;;;6235069;28;19939;-60
2023/04/05 10:26:20;;;;;;;;;;;;;;;;;;6230076;28;19924;-58
2023/04/05 10:29:28;;;;;;;;;;;;;;;;;;6235324;28;20356;-58
2023/04/05 10:32:33;;;;;;;;;;;;;;;;;;6235440;28;19925;-57
2023/04/05 10:35:42;;;;;;;;;;;;;;;;;;6232880;28;19946;-58
2023/04/05 10:38:55;;;;;;;;;;;;;;;;;;6233948;28;19964;-58
2023/04/05 10:42:00;;;;;;;;;;;;;;;;;;6237266;28;20314;-58
2023/04/05 10:45:03;;;;;;;;;;;;;;;;;;6239788;28;19929;-59
2023/04/05 10:48:15;;;;;;;;;;;;;;;;;;6239418;28;20016;-60
2023/04/05 10:51:15;;;;;;;;;;;;;;;;;;6234457;28;19928;-59
2023/04/05 10:54:17;;;;;;;;;;;;;;;;;;6234579;28;19921;-58
2023/04/05 10:57:18;;;;;;;;;;;;;;;;;;6235396;28;19925;-61
2023/04/05 11:00:20;;;;;;;;;;;;;;;;;;6235617;28;19932;-59
2023/04/05 11:03:39;;;;;;;;;;;;;;;;;;6233630;28;20370;-59
2023/04/05 11:06:40;;;;;;;;;;;;;;;;;;6235519;28;19927;-61
2023/04/05 11:09:50;;;;;;;;;;;;;;;;;;6235478;28;19921;-61
2023/04/05 11:12:51;;;;;;;;;;;;;;;;;;6236080;28;19921;-58
2023/04/05 11:16:07;;;;;;;;;;;;;;;;;;6236407;28;19948;-60
2023/04/05 11:19:08;;;;;;;;;;;;;;;;;;6235003;28;19929;-62
2023/04/05 11:22:09;;;;;;;;;;;;;;;;;;6234647;28;20344;-61
2023/04/05 11:25:20;;;;;;;;;;;;;;;;;;6224039;28;19936;-61
2023/04/05 11:28:21;;;;;;;;;;;;;;;;;;6224806;28;19939;-60
2023/04/05 11:31:25;;;;;;;;;;;;;;;;;;6224779;28;19933;-60
2023/04/05 11:34:26;;;;;;;;;;;;;;;;;;6221717;28;19939;-57
2023/04/05 11:37:45;;;;;;;;;;;;;;;;;;6225719;28;19972;-60
2023/04/05 11:40:46;;;;;;;;;;;;;;;;;;6225632;28;19960;-60
2023/04/05 11:43:47;;;;;;;;;;;;;;;;;;6224688;28;20450;-58
2023/04/05 11:46:47;;;;;;;;;;;;;;;;;;6224468;28;19936;-61
2023/04/05 11:49:49;;;;;;;;;;;;;;;;;;6229986;28;19936;-59
2023/04/05 11:53:09;;;;;;;;;;;;;;;;;;6228373;28;19936;-59
2023/04/05 11:56:14;;;;;;;;;;;;;;;;;;6228269;28;19924;-60
2023/04/05 11:59:15;;;;;;;;;;;;;;;;;;6229840;28;19929;-60
2023/04/05 12:02:16;;;;;;;;;;;;;;;;;;6229316;28;20451;-59
2023/04/05 12:05:17;;;;;;;;;;;;;;;;;;6225961;28;19932;-60
2023/04/05 12:08:18;;;;;;;;;;;;;;;;;;6228491;28;19925;-61
2023/04/05 12:11:29;;;;;;;;;;;;;;;;;;6229080;28;19932;-60
2023/04/05 12:14:31;;;;;;;;;;;;;;;;;;6225305;28;20016;-60
2023/04/05 12:17:43;;;;;;;;;;;;;;;;;;6227804;28;19929;-61
2023/04/05 12:20:44;;;;;;;;;;;;;;;;;;6232302;28;20007;-61
2023/04/05 12:23:45;;;;;;;;;;;;;;;;;;6234450;28;21053;-60
2023/04/05 12:26:46;;;;;;;;;;;;;;;;;;6232749;28;19929;-60
2023/04/05 12:30:05;;;;;;;;;;;;;;;;;;6236372;28;19924;-59
2023/04/05 12:33:07;;;;;;;;;;;;;;;;;;6236130;28;19925;-58
2023/04/05 12:36:08;;;;;;;;;;;;;;;;;;6232756;28;20458;-60
2023/04/05 12:39:09;;;;;;;;;;;;;;;;;;6235384;28;20016;-59
2023/04/05 12:42:16;;;;;;;;;;;;;;;;;;6235365;28;20651;-60
2023/04/05 12:45:17;;;;;;;;;;;;;;;;;;6233782;28;20383;-60
2023/04/05 12:48:22;;;;;;;;;;;;;;;;;;6234774;28;19932;-58
2023/04/05 12:51:23;;;;;;;;;;;;;;;;;;6234397;28;19939;-58
2023/04/05 12:54:23;;;;;;;;;;;;;;;;;;6233885;28;19929;-60
2023/04/05 12:57:29;;;;;;;;;;;;;;;;;;6234148;28;20047;-59
2023/04/05 13:00:30;;;;;;;;;;;;;;;;;;6233095;28;20132;-61
2023/04/05 13:03:31;;;;;;;;;;;;;;;;;;6236035;28;20015;-61
2023/04/05 13:06:31;;;;;;;;;;;;;;;;;;6233175;28;20460;-61
2023/04/05 13:09:35;;;;;;;;;;;;;;;;;;6236005;28;20828;-61
2023/04/05 13:12:36;;;;;;;;;;;;;;;;;;6235988;28;20012;-60
2023/04/05 13:15:36;;;;;;;;;;;;;;;;;;6234045;28;20110;-62
2023/04/05 13:18:37;;;;;;;;;;;;;;;;;;6234815;28;19928;-60
2023/04/05 13:21:37;;;;;;;;;;;;;;;;;;6236239;28;19927;-61
2023/04/05 13:24:38;;;;;;;;;;;;;;;;;;6233307;28;19932;-61
2023/04/05 13:27:38;;;;;;;;;;;;;;;;;;6234435;28;20382;-60
2023/04/05 13:30:39;;;;;;;;;;;;;;;;;;6235714;28;19936;-60
2023/04/05 13:33:39;;;;;;;;;;;;;;;;;;6234861;28;19933;-60
2023/04/05 13:36:40;;;;;;;;;;;;;;;;;;6228626;28;19932;-60
2023/04/05 13:39:41;;;;;;;;;;;;;;;;;;6226418;28;19935;-60
2023/04/05 13:42:41;;;;;;;;;;;;;;;;;;6226849;28;20362;-59
2023/04/05 13:45:42;;;;;;;;;;;;;;;;;;6222786;28;19925;-60
2023/04/05 13:48:42;;;;;;;;;;;;;;;;;;6227445;28;20347;-58
2023/04/05 13:51:43;;;;;;;;;;;;;;;;;;6228173;28;19975;-60
2023/04/05 13:54:44;;;;;;;;;;;;;;;;;;6223938;28;19929;-59
2023/04/05 13:57:45;;;;;;;;;;;;;;;;;;6225133;28;19936;-60
2023/04/05 14:00:46;;;;;;;;;;;;;;;;;;6226950;28;19929;-61
2023/04/05 14:03:46;;;;;;;;;;;;;;;;;;6224983;28;20359;-61
2023/04/05 14:06:47;;;;;;;;;;;;;;;;;;6222379;28;19924;-60
2023/04/05 14:09:47;;;;;;;;;;;;;;;;;;6226413;28;19928;-61
2023/04/05 14:12:48;;;;;;;;;;;;;;;;;;6230180;28;19925;-60
2023/04/05 14:15:49;;;;;;;;;;;;;;;;;;6226782;28;19986;-61
2023/04/05 14:18:49;;;;;;;;;;;;;;;;;;6226955;28;19929;-60
2023/04/05 14:21:50;;;;;;;;;;;;;;;;;;6228242;28;19929;-61
2023/04/05 14:24:51;;;;;;;;;;;;;;;;;;6224669;28;19976;-58
2023/04/05 14:27:52;;;;;;;;;;;;;;;;;;6226932;28;20026;-61
2023/04/05 14:30:52;;;;;;;;;;;;;;;;;;6233043;28;20450;-60
2023/04/05 14:33:53;;;;;;;;;;;;;;;;;;6234488;28;19925;-60
2023/04/05 14:36:57;;;;;;;;;;;;;;;;;;6231561;28;19925;-57
2023/04/05 14:39:57;;;;;;;;;;;;;;;;;;6233857;28;19928;-61
2023/04/05 14:42:58;;;;;;;;;;;;;;;;;;6234824;28;19925;-62
2023/04/05 14:45:58;;;;;;;;;;;;;;;;;;6231754;28;19925;-59
2023/04/05 14:48:59;;;;;;;;;;;;;;;;;;6234043;28;19932;-59
2023/04/05 14:52:01;;;;;;;;;;;;;;;;;;6234146;28;19966;-61
2023/04/05 14:55:01;;;;;;;;;;;;;;;;;;6232420;28;19992;-61
2023/04/05 14:58:02;;;;;;;;;;;;;;;;;;6232855;28;19930;-61
2023/04/05 15:01:03;;;;;;;;;;;;;;;;;;6232384;28;19936;-60
2023/04/05 15:04:04;;;;;;;;;;;;;;;;;;6232173;28;19929;-61
2023/04/05 15:07:04;;;;;;;;;;;;;;;;;;6230254;28;19979;-60
2023/04/05 15:10:05;;;;;;;;;;;;;;;;;;6233723;28;19972;-57
2023/04/05 15:13:05;;;;;;;;;;;;;;;;;;6232019;28;19928;-61
2023/04/05 15:16:06;;;;;;;;;;;;;;;;;;6231048;28;19933;-58
2023/04/05 15:19:06;;;;;;;;;;;;;;;;;;6233664;28;19936;-60
2023/04/05 15:22:07;;;;;;;;;;;;;;;;;;6233943;28;20767;-61
2023/04/05 15:25:08;;;;;;;;;;;;;;;;;;6236051;28;20376;-62
2023/04/05 15:28:09;;;;;;;;;;;;;;;;;;6237262;28;19925;-59
2023/04/05 15:31:09;;;;;;;;;;;;;;;;;;6238852;28;19959;-59
2023/04/05 15:34:11;;;;;;;;;;;;;;;;;;6237560;28;19925;-61
2023/04/05 15:37:12;;;;;;;;;;;;;;;;;;6236286;28;20296;-60
2023/04/05 15:40:12;;;;;;;;;;;;;;;;;;6238962;28;19936;-59
2023/04/05 15:43:13;;;;;;;;;;;;;;;;;;6238475;28;19925;-58
2023/04/05 15:46:13;;;;;;;;;;;;;;;;;;6235593;28;19928;-60
2023/04/05 15:49:14;;;;;;;;;;;;;;;;;;6238490;28;19958;-61
2023/04/05 15:52:14;;;;;;;;;;;;;;;;;;6238430;28;19929;-60
2023/04/05 15:55:15;;;;;;;;;;;;;;;;;;6236301;28;19935;-61
2023/04/05 15:58:15;;;;;;;;;;;;;;;;;;6237043;28;19970;-61
2023/04/05 16:01:16;;;;;;;;;;;;;;;;;;6238123;28;20437;-61
2023/04/05 16:04:17;;;;;;;;;;;;;;;;;;6233493;28;19928;-61
2023/04/05 16:07:17;;;;;;;;;;;;;;;;;;6230975;28;20326;-61
2023/04/05 16:10:18;;;;;;;;;;;;;;;;;;6232352;28;19928;-60
2023/04/05 16:13:18;;;;;;;;;;;;;;;;;;6234650;28;19970;-62
2023/04/05 16:16:20;;;;;;;;;;;;;;;;;;6231668;28;20437;-60
2023/04/05 16:19:20;;;;;;;;;;;;;;;;;;6235308;28;19932;-61
2023/04/05 16:22:21;;;;;;;;;;;;;;;;;;6235534;28;20279;-61
2023/04/05 16:25:21;;;;;;;;;;;;;;;;;;6232486;28;19925;-59
2023/04/05 16:28:22;;;;;;;;;;;;;;;;;;6234037;28;19955;-60
2023/04/05 16:31:23;;;;;;;;;;;;;;;;;;6235420;28;19936;-58
2023/04/05 16:34:24;;;;;;;;;;;;;;;;;;6231587;28;19929;-60
2023/04/05 16:37:24;;;;;;;;;;;;;;;;;;6232905;28;19935;-59
2023/04/05 16:40:25;;;;;;;;;;;;;;;;;;6235691;28;19991;-61
2023/04/05 16:43:25;;;;;;;;;;;;;;;;;;6233394;28;19929;-59
2023/04/05 16:46:29;;;;;;;;;;;;;;;;;;6230495;28;19929;-58
2023/04/05 16:49:30;;;;;;;;;;;;;;;;;;6234157;28;20636;-60
2023/04/05 16:52:30;;;;;;;;;;;;;;;;;;6233608;28;19925;-60
2023/04/05 16:55:31;;;;;;;;;;;;;;;;;;6232308;28;19934;-58
2023/04/05 16:58:32;;;;;;;;;;;;;;;;;;6231881;28;19925;-61
2023/04/05 17:01:32;;;;;;;;;;;;;;;;;;6234713;28;19975;-61
2023/04/05 17:04:33;;;;;;;;;;;;;;;;;;6232542;28;19925;-62
2023/04/05 17:07:34;;;;;;;;;;;;;;;;;;6233353;28;19936;-58
2023/04/05 17:10:34;;;;;;;;;;;;;;;;;;6232803;28;19936;-61
2023/04/05 17:13:35;;;;;;;;;;;;;;;;;;6234325;28;19961;-62
2023/04/05 17:16:38;;;;;;;;;;;;;;;;;;6229253;28;20304;-59
2023/04/05 17:19:38;;;;;;;;;;;;;;;;;;6233158;28;19929;-59
2023/04/05 17:22:40;;;;;;;;;;;;;;;;;;6227922;28;19936;-60
2023/04/05 17:25:40;;;;;;;;;;;;;;;;;;6227476;28;19932;-59
2023/04/05 17:28:41;;;;;;;;;;;;;;;;;;6232360;28;19925;-59
2023/04/05 17:31:43;;;;;;;;;;;;;;;;;;6232556;28;20347;-58
2023/04/05 17:34:44;;;;;;;;;;;;;;;;;;6231233;28;19921;-59
2023/04/05 17:37:45;;;;;;;;;;;;;;;;;;6230209;28;19921;-59
2023/04/05 17:40:46;;;;;;;;;;;;;;;;;;6231798;28;19921;-58
2023/04/05 17:43:46;;;;;;;;;;;;;;;;;;6233443;28;20783;-60
2023/04/05 17:46:47;;;;;;;;;;;;;;;;;;6228885;28;19929;-61
2023/04/05 17:49:48;;;;;;;;;;;;;;;;;;6231679;28;19964;-62
2023/04/05 17:52:49;;;;;;;;;;;;;;;;;;6232056;28;19929;-62
2023/04/05 17:55:49;;;;;;;;;;;;;;;;;;6227665;28;19940;-62
2023/04/05 17:58:51;;;;;;;;;;;;;;;;;;6231718;28;20052;-61
2023/04/05 18:01:52;;;;;;;;;;;;;;;;;;6231999;28;19925;-62
2023/04/05 18:04:53;;;;;;;;;;;;;;;;;;6230206;28;20439;-61
2023/04/05 18:07:54;;;;;;;;;;;;;;;;;;6231509;28;19921;-60
2023/04/05 18:10:56;;;;;;;;;;;;;;;;;;6232175;28;19925;-61
2023/04/05 18:13:57;;;;;;;;;;;;;;;;;;6231281;28;19932;-62
2023/04/05 18:16:58;;;;;;;;;;;;;;;;;;6228807;28;19961;-61
2023/04/05 18:19:58;;;;;;;;;;;;;;;;;;6230764;28;19929;-61
2023/04/05 18:22:59;;;;;;;;;;;;;;;;;;6232370;28;19925;-62
2023/04/05 18:26:04;;;;;;;;;;;;;;;;;;6227912;28;19951;-60
2023/04/05 18:29:05;;;;;;;;;;;;;;;;;;6232204;28;19929;-60
2023/04/05 18:32:06;;;;;;;;;;;;;;;;;;6232415;28;19971;-62
2023/04/05 18:35:07;;;;;;;;;;;;;;;;;;6230011;28;21132;-61
2023/04/05 18:38:08;;;;;;;;;;;;;;;;;;6231180;28;19929;-63
2023/04/05 18:41:11;;;;;;;;;;;;;;;;;;6230385;28;19999;-61
2023/04/05 18:44:11;;;;;;;;;;;;;;;;;;6229180;28;19968;-62
2023/04/05 18:47:12;;;;;;;;;;;;;;;;;;6229382;28;19967;-61
2023/04/05 18:50:13;;;;;;;;;;;;;;;;;;6231192;28;20372;-60
2023/04/05 18:53:14;;;;;;;;;;;;;;;;;;6230815;28;19921;-61
2023/04/05 18:56:15;;;;;;;;;;;;;;;;;;6228396;28;20352;-58
2023/04/05 18:59:16;;;;;;;;;;;;;;;;;;6230091;28;19924;-62
2023/04/05 19:02:16;;;;;;;;;;;;;;;;;;6232285;28;20272;-61
2023/04/05 19:05:17;;;;;;;;;;;;;;;;;;6229404;28;19928;-63
2023/04/05 19:08:18;;;;;;;;;;;;;;;;;;6229171;28;19929;-61
2023/04/05 19:11:20;;;;;;;;;;;;;;;;;;6230951;28;19929;-61
2023/04/05 19:14:22;;;;;;;;;;;;;;;;;;6228977;28;20047;-59
2023/04/05 19:17:23;;;;;;;;;;;;;;;;;;6230208;28;19951;-60
2023/04/05 19:20:23;;;;;;;;;;;;;;;;;;6230255;28;19921;-61
2023/04/05 19:23:25;;;;;;;;;;;;;;;;;;6226084;28;20406;-62
2023/04/05 19:26:25;;;;;;;;;;;;;;;;;;6223999;28;20023;-62
2023/04/05 19:29:26;;;;;;;;;;;;;;;;;;6228029;28;21408;-63
2023/04/05 19:32:27;;;;;;;;;;;;;;;;;;6230440;28;19936;-62
2023/04/05 19:35:29;;;;;;;;;;;;;;;;;;6228354;28;19925;-62
2023/04/05 19:38:30;;;;;;;;;;;;;;;;;;6229277;28;19978;-61
2023/04/05 19:41:32;;;;;;;;;;;;;;;;;;6230205;28;20026;-61
2023/04/05 19:44:40;;;;;;;;;;;;;;;;;;6229013;28;19929;-61
2023/04/05 19:47:42;;;;;;;;;;;;;;;;;;6228740;28;19978;-62
2023/04/05 19:50:47;;;;;;;;;;;;;;;;;;6229550;28;19979;-61
2023/04/05 19:53:52;;;;;;;;;;;;;;;;;;6229550;28;19921;-60
2023/04/05 19:56:53;;;;;;;;;;;;;;;;;;6225595;28;19935;-61
2023/04/05 19:59:54;;;;;;;;;;;;;;;;;;6224127;28;19929;-61
2023/04/05 20:02:54;;;;;;;;;;;;;;;;;;6229446;28;20284;-61
2023/04/05 20:06:11;;;;;;;;;;;;;;;;;;6228433;28;20016;-61
2023/04/05 20:09:14;;;;;;;;;;;;;;;;;;6230573;28;20309;-60
2023/04/05 20:12:20;;;;;;;;;;;;;;;;;;6235134;28;19929;-60
2023/04/05 20:15:31;;;;;;;;;;;;;;;;;;6233185;28;19978;-60
2023/04/05 20:18:31;;;;;;;;;;;;;;;;;;6230027;28;19925;-60
2023/04/05 20:21:32;;;;;;;;;;;;;;;;;;6225731;28;20819;-60
2023/04/05 20:24:33;;;;;;;;;;;;;;;;;;6225729;28;19929;-60
2023/04/05 20:27:33;;;;;;;;;;;;;;;;;;6228290;28;19936;-60
2023/04/05 20:30:34;;;;;;;;;;;;;;;;;;6223552;28;19921;-61
2023/04/05 20:33:46;;;;;;;;;;;;;;;;;;6228798;28;19932;-60
2023/04/05 20:36:48;;;;;;;;;;;;;;;;;;6229380;28;19967;-60
2023/04/05 20:39:49;;;;;;;;;;;;;;;;;;6229973;28;19925;-58
2023/04/05 20:42:50;;;;;;;;;;;;;;;;;;6231609;28;19929;-60